Time;durP1;ratioP1;P1;durP2;ratioP2;P2;SDS_P1;SDS_P2;PMS_P1;PMS_P2;Temp;Humidity;BMP_temperature;BMP_pressure;BME280_temperature;BME280_humidity;BME280_pressure;Samples;Min_cycle;Max_cycle;Signal;HPM_P1;HPM_P2
2023/12/24 00:01:12;;;;;;;0.40;0.40;;;9.30;99.90;;;;;;5061544;28;20043;-80
2023/12/24 00:03:38;;;;;;;4.07;0.55;;;9.40;99.90;;;;;;5068582;28;20053;-74
2023/12/24 00:06:15;;;;;;;6.03;0.52;;;9.30;99.90;;;;;;5088452;28;20093;-77
2023/12/24 00:08:41;;;;;;;0.25;0.25;;;9.30;99.90;;;;;;5068327;28;20044;-73
2023/12/24 00:11:06;;;;;;;1.00;0.50;;;9.30;99.90;;;;;;5065445;28;20047;-77
2023/12/24 00:13:35;;;;;;;0.10;0.10;;;9.30;99.90;;;;;;5070840;28;20395;-73
2023/12/24 00:16:01;;;;;;;2.50;1.25;;;9.40;99.90;;;;;;5051207;28;20063;-78
2023/12/24 00:18:26;;;;;;;0.10;0.10;;;9.30;99.90;;;;;;5069094;28;20475;-78
2023/12/24 00:20:52;;;;;;;0.20;0.20;;;9.40;99.90;;;;;;5066393;28;20036;-79
2023/12/24 00:23:17;;;;;;;0.55;0.30;;;9.40;99.90;;;;;;5068406;28;20495;-75
2023/12/24 00:25:43;;;;;;;1.95;0.70;;;9.30;99.90;;;;;;5093805;28;20063;-73
2023/12/24 00:28:08;;;;;;;0.47;0.47;;;9.40;99.90;;;;;;5062639;28;20055;-80
2023/12/24 00:30:35;;;;;;;6.13;0.55;;;9.30;99.90;;;;;;5065420;28;20063;-76
2023/12/24 00:33:00;;;;;;;0.40;0.40;;;9.40;99.90;;;;;;5062188;28;20045;-75
2023/12/24 00:35:27;;;;;;;3.22;0.40;;;9.40;99.90;;;;;;5057213;28;20036;-75
2023/12/24 00:37:52;;;;;;;0.45;0.45;;;9.40;99.90;;;;;;5055640;28;20048;-77
2023/12/24 00:40:19;;;;;;;0.57;0.28;;;9.40;99.90;;;;;;5057935;28;20578;-75
2023/12/24 00:42:45;;;;;;;1.85;0.15;;;9.40;99.90;;;;;;5064936;28;20051;-76
2023/12/24 00:45:13;;;;;;;0.65;0.30;;;9.30;99.90;;;;;;5050770;28;20033;-72
2023/12/24 00:47:40;;;;;;;0.65;0.17;;;9.40;99.90;;;;;;5055779;28;20287;-75
2023/12/24 00:50:08;;;;;;;0.10;0.10;;;9.40;99.90;;;;;;5053270;28;20089;-74
2023/12/24 00:52:34;;;;;;;0.15;0.15;;;9.40;99.90;;;;;;5066948;28;20032;-81
2023/12/24 00:55:00;;;;;;;2.45;0.73;;;9.40;99.90;;;;;;5066872;28;20037;-76
2023/12/24 00:57:26;;;;;;;36.28;1.10;;;9.40;99.90;;;;;;5101873;28;20043;-78
2023/12/24 00:59:51;;;;;;;0.10;0.10;;;9.40;99.90;;;;;;5064687;28;20028;-71
2023/12/24 01:02:19;;;;;;;0.10;0.10;;;9.30;99.90;;;;;;5083168;28;20032;-77
2023/12/24 01:04:44;;;;;;;0.10;0.10;;;9.40;99.90;;;;;;5066677;28;20039;-75
2023/12/24 01:07:10;;;;;;;0.30;0.30;;;9.40;99.90;;;;;;5063593;28;20475;-76
2023/12/24 01:09:37;;;;;;;1.08;0.98;;;9.40;99.90;;;;;;5067719;28;20040;-80
2023/12/24 01:12:03;;;;;;;0.15;0.15;;;9.40;99.90;;;;;;5048337;28;20368;-77
2023/12/24 01:14:30;;;;;;;0.77;0.47;;;9.30;99.90;;;;;;5075870;28;20138;-77
2023/12/24 01:16:55;;;;;;;0.28;0.28;;;9.40;99.90;;;;;;5056382;28;20055;-73
2023/12/24 01:19:22;;;;;;;0.10;0.10;;;9.50;99.90;;;;;;5052620;28;20028;-78
2023/12/24 01:21:48;;;;;;;0.00;0.00;;;9.50;99.90;;;;;;5088493;28;20052;-77
2023/12/24 01:24:16;;;;;;;0.20;0.20;;;9.50;99.90;;;;;;5076240;28;20122;-76
2023/12/24 01:26:41;;;;;;;0.20;0.20;;;9.50;99.90;;;;;;5061404;28;20044;-76
2023/12/24 01:29:07;;;;;;;3.40;0.40;;;9.50;99.90;;;;;;5052585;28;20044;-76
2023/12/24 01:31:32;;;;;;;0.45;0.45;;;9.50;99.90;;;;;;5062674;28;20314;-75
2023/12/24 01:33:59;;;;;;;0.00;0.00;;;9.50;99.90;;;;;;5068997;28;20040;-75
2023/12/24 01:36:25;;;;;;;0.43;0.20;;;9.50;99.90;;;;;;5065895;28;20037;-78
2023/12/24 01:38:50;;;;;;;0.20;0.20;;;9.50;99.90;;;;;;5069961;28;20041;-74
2023/12/24 01:41:16;;;;;;;0.10;0.10;;;9.40;99.90;;;;;;5067541;28;20213;-74
2023/12/24 01:43:43;;;;;;;0.10;0.10;;;9.40;99.90;;;;;;5067549;28;20213;-78
2023/12/24 01:46:15;;;;;;;7.78;0.75;;;9.40;99.90;;;;;;5056535;28;20128;-74
2023/12/24 01:48:40;;;;;;;;;;;9.40;99.90;;;;;;5095234;28;20048;-73
2023/12/24 01:51:07;;;;;;;0.10;0.10;;;9.40;99.90;;;;;;5074112;28;20351;-79
2023/12/24 01:53:33;;;;;;;0.15;0.15;;;9.30;99.90;;;;;;5063184;28;20127;-79
2023/12/24 01:56:01;;;;;;;0.22;0.22;;;9.40;99.90;;;;;;5063041;28;20048;-74
2023/12/24 01:58:27;;;;;;;0.50;0.50;;;9.40;99.90;;;;;;5074729;28;20040;-77
2023/12/24 02:00:53;;;;;;;0.15;0.15;;;9.30;99.90;;;;;;5061547;28;20033;-75
2023/12/24 02:03:19;;;;;;;0.10;0.10;;;9.40;99.90;;;;;;5059808;28;20040;-74
2023/12/24 02:05:49;;;;;;;0.20;0.10;;;9.30;99.90;;;;;;5065522;28;20064;-77
2023/12/24 02:08:16;;;;;;;0.17;0.17;;;9.30;99.90;;;;;;5067320;28;20047;-74
2023/12/24 02:10:42;;;;;;;0.22;0.10;;;9.30;99.90;;;;;;5056745;28;20131;-76
2023/12/24 02:13:09;;;;;;;0.20;0.20;;;9.30;99.90;;;;;;5066436;28;20338;-77
2023/12/24 02:15:35;;;;;;;0.52;0.52;;;9.30;99.90;;;;;;5068494;28;20051;-76
2023/12/24 02:18:01;;;;;;;0.30;0.30;;;9.30;99.90;;;;;;5083558;28;20032;-76
2023/12/24 02:20:27;;;;;;;0.20;0.20;;;9.30;99.90;;;;;;5072603;28;20100;-77
2023/12/24 02:22:53;;;;;;;0.10;0.10;;;9.30;99.90;;;;;;5062654;28;20037;-73
2023/12/24 02:25:19;;;;;;;0.10;0.10;;;9.30;99.90;;;;;;5057928;28;20040;-80
2023/12/24 02:27:55;;;;;;;2.75;0.75;;;9.30;99.90;;;;;;5071164;28;20049;-79
2023/12/24 02:30:26;;;;;;;0.10;0.10;;;9.30;99.90;;;;;;5067854;28;20040;-79
2023/12/24 02:32:56;;;;;;;0.30;0.30;;;9.30;99.90;;;;;;5075799;28;20066;-74
2023/12/24 02:35:29;;;;;;;0.10;0.10;;;9.30;99.90;;;;;;5059360;28;20646;-78
2023/12/24 02:37:54;;;;;;;0.43;0.30;;;9.30;99.90;;;;;;5065893;28;20036;-77
2023/12/24 02:40:20;;;;;;;0.17;0.17;;;9.30;99.90;;;;;;5066610;28;20059;-76
2023/12/24 02:42:45;;;;;;;0.22;0.22;;;9.30;99.90;;;;;;5097111;28;20043;-76
2023/12/24 02:45:11;;;;;;;0.10;0.10;;;9.30;99.90;;;;;;5068161;28;20033;-70
2023/12/24 02:47:37;;;;;;;0.30;0.10;;;9.40;99.90;;;;;;5060379;28;20081;-77
2023/12/24 02:50:03;;;;;;;0.17;0.10;;;9.40;99.90;;;;;;5050953;28;20491;-76
2023/12/24 02:52:29;;;;;;;0.10;0.10;;;9.30;99.90;;;;;;5067504;28;20041;-73
2023/12/24 02:54:56;;;;;;;0.00;0.00;;;9.40;99.90;;;;;;5059289;28;20040;-79
2023/12/24 02:57:22;;;;;;;8.50;0.30;;;9.40;99.90;;;;;;5068739;28;20037;-77
2023/12/24 02:59:47;;;;;;;0.63;0.15;;;9.30;99.90;;;;;;5056260;28;20406;-77
2023/12/24 03:02:14;;;;;;;0.25;0.25;;;9.30;99.90;;;;;;5063441;28;20029;-80
2023/12/24 03:04:40;;;;;;;0.13;0.13;;;9.40;99.90;;;;;;5095181;28;20032;-75
2023/12/24 03:07:06;;;;;;;0.25;0.25;;;9.40;99.90;;;;;;5067029;28;20047;-72
2023/12/24 03:09:31;;;;;;;1.98;0.28;;;9.40;99.90;;;;;;5063877;28;20052;-75
2023/12/24 03:11:57;;;;;;;0.05;0.05;;;9.40;99.90;;;;;;5066687;28;20047;-78
2023/12/24 03:14:22;;;;;;;0.10;0.10;;;9.40;99.90;;;;;;5054563;28;20399;-78
2023/12/24 03:16:48;;;;;;;0.20;0.20;;;9.30;99.90;;;;;;5064923;28;20047;-76
2023/12/24 03:19:14;;;;;;;0.30;0.30;;;9.40;99.90;;;;;;5054546;28;20464;-75
2023/12/24 03:21:43;;;;;;;0.10;0.10;;;9.40;99.90;;;;;;5066192;28;20111;-77
2023/12/24 03:24:09;;;;;;;0.20;0.20;;;9.30;99.90;;;;;;5061121;28;20055;-77
2023/12/24 03:26:35;;;;;;;1.75;0.80;;;9.30;99.90;;;;;;5099935;28;20036;-74
2023/12/24 03:29:00;;;;;;;1.02;0.30;;;9.40;99.90;;;;;;5068078;28;20037;-75
2023/12/24 03:31:26;;;;;;;0.00;0.00;;;9.40;99.90;;;;;;5069433;28;20487;-79
2023/12/24 03:33:55;;;;;;;0.10;0.10;;;9.40;99.90;;;;;;5067251;28;20135;-70
2023/12/24 03:36:20;;;;;;;0.40;0.35;;;9.40;99.90;;;;;;5065618;28;20071;-73
2023/12/24 03:38:46;;;;;;;0.43;0.20;;;9.50;99.90;;;;;;5067531;28;20060;-77
2023/12/24 03:41:12;;;;;;;0.10;0.10;;;9.40;99.90;;;;;;5069401;28;20124;-77
2023/12/24 03:43:38;;;;;;;3.47;1.48;;;9.40;99.90;;;;;;5066649;28;20032;-79
2023/12/24 03:46:04;;;;;;;3.00;1.00;;;9.50;99.90;;;;;;5062332;28;20052;-76
2023/12/24 03:48:31;;;;;;;0.60;0.60;;;9.40;99.90;;;;;;5069812;28;20120;-75
2023/12/24 03:50:57;;;;;;;0.13;0.13;;;9.50;99.90;;;;;;5072581;28;20040;-78
2023/12/24 03:53:23;;;;;;;0.10;0.10;;;9.50;99.90;;;;;;5066939;28;20098;-74
2023/12/24 03:55:48;;;;;;;0.10;0.10;;;9.50;99.90;;;;;;5072824;28;20036;-80
2023/12/24 03:58:14;;;;;;;6.85;0.20;;;9.60;99.90;;;;;;5055708;28;20029;-78
2023/12/24 04:00:40;;;;;;;0.00;0.00;;;9.50;99.90;;;;;;5072058;28;20043;-76
2023/12/24 04:03:05;;;;;;;0.00;0.00;;;9.50;99.90;;;;;;5063411;28;20040;-73
2023/12/24 04:05:31;;;;;;;0.40;0.40;;;9.50;99.90;;;;;;5049690;28;20044;-77
2023/12/24 04:07:56;;;;;;;0.10;0.10;;;9.50;99.90;;;;;;5068703;28;20040;-75
2023/12/24 04:10:22;;;;;;;0.55;0.20;;;9.60;99.90;;;;;;5067863;28;20048;-79
2023/12/24 04:12:47;;;;;;;0.05;0.05;;;9.60;99.90;;;;;;5060388;28;20036;-75
2023/12/24 04:15:13;;;;;;;0.10;0.10;;;9.60;99.90;;;;;;5066042;28;20036;-79
2023/12/24 04:17:39;;;;;;;0.10;0.10;;;9.60;99.90;;;;;;5070070;28;20183;-77
2023/12/24 04:20:05;;;;;;;0.10;0.10;;;9.60;99.90;;;;;;5067790;28;20079;-76
2023/12/24 04:22:31;;;;;;;0.10;0.10;;;9.60;99.90;;;;;;5063270;28;20040;-78
2023/12/24 04:24:58;;;;;;;0.10;0.10;;;9.60;99.90;;;;;;5063308;28;20174;-78
2023/12/24 04:27:23;;;;;;;0.10;0.10;;;9.60;99.90;;;;;;5069269;28;20040;-76
2023/12/24 04:29:49;;;;;;;0.10;0.10;;;9.60;99.90;;;;;;5067865;28;20067;-75
2023/12/24 04:32:16;;;;;;;0.10;0.10;;;9.70;99.90;;;;;;5065353;28;20032;-73
2023/12/24 04:34:43;;;;;;;0.80;0.13;;;9.70;99.90;;;;;;5069879;28;20659;-76
2023/12/24 04:37:09;;;;;;;0.00;0.00;;;9.70;99.90;;;;;;5067098;28;20123;-74
2023/12/24 04:39:35;;;;;;;0.30;0.30;;;9.70;99.90;;;;;;5066196;28;20386;-82
2023/12/24 04:42:00;;;;;;;0.10;0.10;;;9.80;99.90;;;;;;5061943;28;20115;-74
2023/12/24 04:44:26;;;;;;;0.10;0.10;;;9.70;99.90;;;;;;5067732;28;20097;-74
2023/12/24 04:46:52;;;;;;;1.60;0.10;;;9.80;99.90;;;;;;5057760;28;20036;-74
2023/12/24 04:49:17;;;;;;;0.10;0.10;;;9.70;99.90;;;;;;5093064;28;20388;-81
2023/12/24 04:51:43;;;;;;;0.03;0.03;;;9.80;99.90;;;;;;5064711;28;20037;-78
2023/12/24 04:54:08;;;;;;;0.10;0.10;;;9.80;99.90;;;;;;5077355;28;20119;-73
2023/12/24 04:56:34;;;;;;;0.10;0.10;;;9.80;99.90;;;;;;5065551;28;20071;-75
2023/12/24 04:59:00;;;;;;;3.67;0.25;;;9.80;99.90;;;;;;5074441;28;20103;-74
2023/12/24 05:01:25;;;;;;;0.10;0.10;;;9.80;99.90;;;;;;5068300;28;20044;-77
2023/12/24 05:03:51;;;;;;;0.35;0.35;;;9.90;99.90;;;;;;5069278;28;20512;-75
2023/12/24 05:06:18;;;;;;;0.30;0.30;;;9.90;99.90;;;;;;5067250;28;20111;-74
2023/12/24 05:08:43;;;;;;;0.45;0.10;;;9.80;99.90;;;;;;5075717;28;20105;-81
2023/12/24 05:11:09;;;;;;;0.20;0.10;;;9.90;99.90;;;;;;5062824;28;20045;-75
2023/12/24 05:13:36;;;;;;;0.10;0.10;;;9.90;99.90;;;;;;5066150;28;20476;-78
2023/12/24 05:16:02;;;;;;;0.17;0.10;;;9.90;99.90;;;;;;5067916;28;20029;-74
2023/12/24 05:18:29;;;;;;;0.22;0.22;;;9.90;99.90;;;;;;5070571;28;20036;-72
2023/12/24 05:20:55;;;;;;;0.00;0.00;;;9.90;99.90;;;;;;5067693;28;20063;-73
2023/12/24 05:23:21;;;;;;;0.73;0.40;;;10.00;99.90;;;;;;5071643;28;20036;-78
2023/12/24 05:25:47;;;;;;;0.60;0.35;;;9.90;99.90;;;;;;5067180;28;20032;-78
2023/12/24 05:28:13;;;;;;;0.20;0.20;;;9.90;99.90;;;;;;5071112;28;20040;-72
2023/12/24 05:30:39;;;;;;;0.00;0.00;;;10.00;99.90;;;;;;5070901;28;20044;-77
2023/12/24 05:33:05;;;;;;;0.10;0.10;;;9.90;99.90;;;;;;5067486;28;20495;-76
2023/12/24 05:35:30;;;;;;;0.20;0.20;;;10.00;99.90;;;;;;5061687;28;20130;-77
2023/12/24 05:37:56;;;;;;;0.10;0.10;;;10.00;99.90;;;;;;5068698;28;20033;-73
2023/12/24 05:40:21;;;;;;;0.08;0.08;;;10.10;99.90;;;;;;5037138;28;20063;-79
2023/12/24 05:42:47;;;;;;;0.10;0.10;;;10.00;99.90;;;;;;5058269;28;20036;-76
2023/12/24 05:45:13;;;;;;;0.10;0.10;;;10.10;99.90;;;;;;5049007;28;20495;-77
2023/12/24 05:47:38;;;;;;;0.20;0.20;;;10.10;99.90;;;;;;5054754;28;20126;-78
2023/12/24 05:50:06;;;;;;;1.45;0.50;;;10.10;99.90;;;;;;5054040;28;20048;-75
2023/12/24 05:52:31;;;;;;;0.38;0.38;;;10.10;99.90;;;;;;5058644;28;20064;-74
2023/12/24 05:54:57;;;;;;;0.82;0.28;;;10.20;99.90;;;;;;5093158;28;20032;-74
2023/12/24 05:57:22;;;;;;;0.10;0.10;;;10.10;99.90;;;;;;5066727;28;20036;-83
2023/12/24 05:59:48;;;;;;;0.98;0.17;;;10.20;99.90;;;;;;5063767;28;20041;-75
2023/12/24 06:02:14;;;;;;;0.15;0.15;;;10.20;99.90;;;;;;5076222;28;20048;-80
2023/12/24 06:04:39;;;;;;;0.10;0.10;;;10.20;99.90;;;;;;5065038;28;20037;-79
2023/12/24 06:07:05;;;;;;;0.00;0.00;;;10.20;99.90;;;;;;5061112;28;20029;-72
2023/12/24 06:09:31;;;;;;;0.47;0.30;;;10.20;99.90;;;;;;5078304;28;20507;-78
2023/12/24 06:11:56;;;;;;;0.03;0.03;;;10.30;99.90;;;;;;5072877;28;20123;-71
2023/12/24 06:14:22;;;;;;;2.45;0.30;;;10.30;99.90;;;;;;5072705;28;20050;-76
2023/12/24 06:16:47;;;;;;;0.10;0.10;;;10.30;99.90;;;;;;5073508;28;20491;-78
2023/12/24 06:19:13;;;;;;;0.85;0.70;;;10.30;99.90;;;;;;5076755;28;20090;-72
2023/12/24 06:21:39;;;;;;;0.10;0.10;;;10.30;99.90;;;;;;5071792;28;20392;-76
2023/12/24 06:24:05;;;;;;;0.47;0.22;;;10.30;99.90;;;;;;5063119;28;20475;-78
2023/12/24 06:26:31;;;;;;;0.20;0.20;;;10.30;99.90;;;;;;5071739;28;20041;-73
2023/12/24 06:28:57;;;;;;;0.68;0.38;;;10.40;99.90;;;;;;5068867;28;20072;-73
2023/12/24 06:31:22;;;;;;;0.20;0.20;;;10.40;99.90;;;;;;5071314;28;20060;-77
2023/12/24 06:33:48;;;;;;;0.32;0.13;;;10.40;99.90;;;;;;5068702;28;20040;-76
2023/12/24 06:36:14;;;;;;;0.63;0.35;;;10.40;99.90;;;;;;5066944;28;20032;-78
2023/12/24 06:38:40;;;;;;;1.00;0.50;;;10.50;99.90;;;;;;5071767;28;20032;-70
2023/12/24 06:41:06;;;;;;;1.02;0.65;;;10.50;99.90;;;;;;5069629;28;20047;-75
2023/12/24 06:43:31;;;;;;;0.30;0.30;;;10.50;99.90;;;;;;5069349;28;20045;-79
2023/12/24 06:45:57;;;;;;;1.70;1.17;;;10.50;99.90;;;;;;5070922;28;20040;-72
2023/12/24 06:48:23;;;;;;;0.20;0.20;;;10.60;99.90;;;;;;5070460;28;20048;-77
2023/12/24 06:50:48;;;;;;;0.40;0.32;;;10.70;99.90;;;;;;5052943;28;20036;-76
2023/12/24 06:53:14;;;;;;;0.13;0.13;;;10.70;99.90;;;;;;5052135;28;20028;-78
2023/12/24 06:55:39;;;;;;;0.63;0.30;;;10.60;99.90;;;;;;5050490;28;20044;-77
2023/12/24 06:58:06;;;;;;;0.15;0.10;;;10.60;99.90;;;;;;5063760;28;20028;-77
2023/12/24 07:00:32;;;;;;;0.43;0.20;;;10.70;99.90;;;;;;5069391;28;20391;-78
2023/12/24 07:02:59;;;;;;;0.20;0.20;;;10.70;99.90;;;;;;5071409;28;20044;-77
2023/12/24 07:05:24;;;;;;;0.22;0.22;;;10.70;99.90;;;;;;5047646;28;20365;-79
2023/12/24 07:07:50;;;;;;;0.17;0.17;;;10.70;99.90;;;;;;5083593;28;20040;-76
2023/12/24 07:10:16;;;;;;;0.30;0.30;;;10.70;99.90;;;;;;5074502;28;20041;-80
2023/12/24 07:12:41;;;;;;;0.50;0.50;;;10.70;99.90;;;;;;5071584;28;20472;-76
2023/12/24 07:15:07;;;;;;;0.10;0.10;;;10.70;99.90;;;;;;5078121;28;20090;-73
2023/12/24 07:17:33;;;;;;;0.25;0.25;;;10.70;99.90;;;;;;5069654;28;20036;-74
2023/12/24 07:19:59;;;;;;;0.10;0.10;;;10.70;99.90;;;;;;5065432;28;20044;-73
2023/12/24 07:22:25;;;;;;;0.65;0.47;;;10.70;99.90;;;;;;5071864;28;20503;-77
2023/12/24 07:24:51;;;;;;;20.08;0.55;;;10.70;99.90;;;;;;5069905;28;20089;-80
2023/12/24 07:27:17;;;;;;;0.50;0.50;;;10.70;99.90;;;;;;5068172;28;20033;-75
2023/12/24 07:29:42;;;;;;;0.60;0.40;;;10.70;99.90;;;;;;5063814;28;20557;-76
2023/12/24 07:32:08;;;;;;;2.42;1.15;;;10.70;99.90;;;;;;5094433;28;20586;-72
2023/12/24 07:34:34;;;;;;;0.10;0.10;;;10.80;99.90;;;;;;5071532;28;20044;-80
2023/12/24 07:37:04;;;;;;;0.20;0.20;;;10.70;99.90;;;;;;5065258;28;20032;-76
2023/12/24 07:39:30;;;;;;;0.30;0.30;;;10.70;99.90;;;;;;5093865;28;20033;-75
2023/12/24 07:41:55;;;;;;;0.55;0.55;;;10.70;99.90;;;;;;5068971;28;20043;-77
2023/12/24 07:44:21;;;;;;;0.73;0.73;;;10.80;99.90;;;;;;5092443;28;20041;-80
2023/12/24 07:46:47;;;;;;;9.90;0.57;;;10.80;99.90;;;;;;5052043;28;20048;-77
2023/12/24 07:49:12;;;;;;;0.65;0.30;;;10.80;99.90;;;;;;5068099;28;20028;-80
2023/12/24 07:51:38;;;;;;;0.10;0.10;;;10.80;99.90;;;;;;5069760;28;20464;-75
2023/12/24 07:54:04;;;;;;;0.43;0.43;;;10.90;99.90;;;;;;5059801;28;20037;-79
2023/12/24 07:56:30;;;;;;;3.95;1.50;;;10.90;99.90;;;;;;5068764;28;21572;-79
2023/12/24 07:58:56;;;;;;;1.65;0.43;;;10.90;99.90;;;;;;5067534;28;20115;-79
2023/12/24 08:01:21;;;;;;;0.20;0.20;;;10.90;99.90;;;;;;5045551;28;20197;-75
2023/12/24 08:03:47;;;;;;;2.15;1.08;;;11.00;99.90;;;;;;5066920;28;20044;-75
2023/12/24 08:06:12;;;;;;;0.40;0.40;;;10.90;99.90;;;;;;5063601;28;20042;-78
2023/12/24 08:08:38;;;;;;;0.15;0.15;;;10.90;99.90;;;;;;5065574;28;20040;-77
2023/12/24 08:11:04;;;;;;;0.30;0.30;;;10.90;99.90;;;;;;5066836;28;20047;-77
2023/12/24 08:13:29;;;;;;;12.93;0.88;;;10.90;99.90;;;;;;5072553;28;20051;-80
2023/12/24 08:15:55;;;;;;;0.13;0.13;;;11.00;99.90;;;;;;5065746;28;20043;-75
2023/12/24 08:18:21;;;;;;;5.57;0.20;;;10.90;99.90;;;;;;5067648;28;20371;-78
2023/12/24 08:20:46;;;;;;;2.38;0.77;;;10.90;99.90;;;;;;5065496;28;20121;-78
2023/12/24 08:23:12;;;;;;;0.30;0.30;;;10.90;99.90;;;;;;5067912;28;20101;-76
2023/12/24 08:25:37;;;;;;;0.65;0.60;;;10.90;99.90;;;;;;5070453;28;20045;-79
2023/12/24 08:28:05;;;;;;;0.65;0.65;;;10.90;99.90;;;;;;5063345;28;20040;-73
2023/12/24 08:30:31;;;;;;;1.30;0.52;;;11.00;99.90;;;;;;5070493;28;20057;-76
2023/12/24 08:32:57;;;;;;;1.35;0.55;;;11.00;99.90;;;;;;5066548;28;20032;-79
2023/12/24 08:35:22;;;;;;;0.10;0.10;;;11.10;99.90;;;;;;5067627;28;20037;-78
2023/12/24 08:37:48;;;;;;;0.57;0.10;;;11.10;99.90;;;;;;5064417;28;20033;-73
2023/12/24 08:40:13;;;;;;;1.85;1.35;;;11.10;99.90;;;;;;5067626;28;20386;-79
2023/12/24 08:42:39;;;;;;;1.45;0.30;;;11.10;99.90;;;;;;5087141;28;20037;-73
2023/12/24 08:45:05;;;;;;;0.20;0.20;;;11.20;99.90;;;;;;5064262;28;20048;-78
2023/12/24 08:47:30;;;;;;;0.08;0.08;;;11.20;99.90;;;;;;5046147;28;20040;-77
2023/12/24 08:49:57;;;;;;;0.10;0.10;;;11.20;99.90;;;;;;5081676;28;20036;-80
2023/12/24 08:52:23;;;;;;;0.10;0.10;;;11.20;99.90;;;;;;5069271;28;20082;-79
2023/12/24 08:54:49;;;;;;;3.40;0.52;;;11.20;99.90;;;;;;5067889;28;20032;-76
2023/12/24 08:57:15;;;;;;;0.20;0.20;;;11.10;99.90;;;;;;5064244;28;20040;-74
2023/12/24 08:59:40;;;;;;;0.15;0.15;;;11.20;99.90;;;;;;5066787;28;20494;-79
2023/12/24 09:02:06;;;;;;;0.32;0.32;;;11.20;99.90;;;;;;5092673;28;20392;-74
2023/12/24 09:04:32;;;;;;;0.52;0.52;;;11.20;99.90;;;;;;5087784;28;20053;-76
2023/12/24 09:06:58;;;;;;;0.00;0.00;;;11.20;99.90;;;;;;5064364;28;20525;-75
2023/12/24 09:09:23;;;;;;;0.32;0.30;;;11.20;99.90;;;;;;5062102;28;20067;-78
2023/12/24 09:11:50;;;;;;;0.52;0.50;;;11.20;99.90;;;;;;5058696;28;20342;-75
2023/12/24 09:14:16;;;;;;;0.00;0.00;;;11.30;99.90;;;;;;5082950;28;20048;-74
2023/12/24 09:16:41;;;;;;;0.10;0.10;;;11.20;99.90;;;;;;5086742;28;20036;-76
2023/12/24 09:19:07;;;;;;;0.20;0.20;;;11.30;99.90;;;;;;5064818;28;20053;-81
2023/12/24 09:21:32;;;;;;;0.10;0.10;;;11.30;99.90;;;;;;5054826;28;20127;-80
2023/12/24 09:24:00;;;;;;;0.10;0.10;;;11.30;99.90;;;;;;5066834;28;20051;-76
2023/12/24 09:26:26;;;;;;;1.08;0.47;;;11.30;99.90;;;;;;5067330;28;20040;-77
2023/12/24 09:28:51;;;;;;;0.10;0.10;;;11.40;99.90;;;;;;5066563;28;20032;-73
2023/12/24 09:31:17;;;;;;;0.55;0.55;;;11.40;99.90;;;;;;5066937;28;20565;-77
2023/12/24 09:33:42;;;;;;;0.20;0.20;;;11.40;99.90;;;;;;5070270;28;20044;-81
2023/12/24 09:36:08;;;;;;;0.28;0.28;;;11.50;99.90;;;;;;5064935;28;20052;-77
2023/12/24 09:38:36;;;;;;;0.20;0.10;;;11.50;99.90;;;;;;5069660;28;20503;-80
2023/12/24 09:41:01;;;;;;;0.20;0.20;;;11.50;99.90;;;;;;5068313;28;20082;-81
2023/12/24 09:43:30;;;;;;;1.45;0.10;;;11.50;99.90;;;;;;5063206;28;20069;-79
2023/12/24 09:45:56;;;;;;;1.05;0.30;;;11.50;99.90;;;;;;5070129;28;20035;-75
2023/12/24 09:48:22;;;;;;;0.75;0.20;;;11.60;99.90;;;;;;5070715;28;20044;-77
2023/12/24 09:50:48;;;;;;;0.00;0.00;;;11.60;99.90;;;;;;5077772;28;20036;-79
2023/12/24 09:53:14;;;;;;;0.10;0.10;;;11.60;99.90;;;;;;5064710;28;20240;-76
2023/12/24 09:55:40;;;;;;;0.10;0.10;;;11.60;99.90;;;;;;5067283;28;20482;-78
2023/12/24 09:58:05;;;;;;;0.30;0.28;;;11.70;99.90;;;;;;5069414;28;20048;-75
2023/12/24 10:00:31;;;;;;;0.20;0.20;;;11.70;99.90;;;;;;5067165;28;20048;-82
2023/12/24 10:02:56;;;;;;;0.32;0.20;;;11.70;99.90;;;;;;5069438;28;20041;-80
2023/12/24 10:05:22;;;;;;;1.08;0.30;;;11.70;99.90;;;;;;5061631;28;20044;-75
2023/12/24 10:07:47;;;;;;;0.15;0.15;;;11.70;99.90;;;;;;5067246;28;20032;-77
2023/12/24 10:10:13;;;;;;;2.92;0.25;;;11.70;99.90;;;;;;5052091;28;20037;-78
2023/12/24 10:12:42;;;;;;;0.17;0.17;;;11.80;99.90;;;;;;5076267;28;20052;-77
2023/12/24 10:15:08;;;;;;;0.20;0.20;;;11.80;99.90;;;;;;5069519;28;20033;-80
2023/12/24 10:17:35;;;;;;;1.45;0.10;;;11.80;99.90;;;;;;5067245;28;20577;-76
2023/12/24 10:20:06;;;;;;;0.63;0.38;;;11.80;99.90;;;;;;5056205;28;20036;-79
2023/12/24 10:22:33;;;;;;;0.65;0.52;;;11.80;99.90;;;;;;5065794;28;20046;-73
2023/12/24 10:25:03;;;;;;;1.60;0.60;;;11.80;99.90;;;;;;5062991;28;20029;-77
2023/12/24 10:27:29;;;;;;;0.10;0.10;;;11.80;99.90;;;;;;5074664;28;20044;-79
2023/12/24 10:30:11;;;;;;;0.10;0.10;;;11.80;99.90;;;;;;5073059;28;20032;-77
2023/12/24 10:32:36;;;;;;;0.27;0.27;;;11.80;99.90;;;;;;5081094;28;20102;-77
2023/12/24 10:35:02;;;;;;;0.05;0.05;;;11.90;99.90;;;;;;5063431;28;20029;-75
2023/12/24 10:37:29;;;;;;;0.20;0.20;;;11.80;99.90;;;;;;5051754;28;20039;-78
2023/12/24 10:40:09;;;;;;;0.15;0.15;;;11.90;99.90;;;;;;5071314;28;20036;-77
2023/12/24 10:42:39;;;;;;;0.10;0.10;;;12.00;99.90;;;;;;5069473;28;20075;-73
2023/12/24 10:45:05;;;;;;;0.10;0.10;;;11.90;99.90;;;;;;5061807;28;20060;-77
2023/12/24 10:47:31;;;;;;;0.00;0.00;;;12.00;99.90;;;;;;5049896;28;20127;-78
2023/12/24 10:49:57;;;;;;;0.30;0.30;;;12.00;99.90;;;;;;5066699;28;20116;-77
2023/12/24 10:52:22;;;;;;;0.00;0.00;;;12.00;99.90;;;;;;5066435;28;20086;-76
2023/12/24 10:54:48;;;;;;;0.08;0.08;;;12.00;99.90;;;;;;5053890;28;20051;-76
2023/12/24 10:57:45;;;;;;;0.25;0.25;;;12.00;99.90;;;;;;5066688;28;20088;-80
2023/12/24 11:00:14;;;;;;;0.10;0.10;;;12.00;99.90;;;;;;5051912;28;20067;-75
2023/12/24 11:02:49;;;;;;;0.10;0.10;;;12.00;99.90;;;;;;5054241;28;20048;-74
2023/12/24 11:05:40;;;;;;;0.10;0.10;;;12.00;99.90;;;;;;5054072;28;20714;-77
2023/12/24 11:08:26;;;;;;;0.22;0.22;;;12.00;99.90;;;;;;5086977;28;20032;-81
2023/12/24 11:10:55;;;;;;;0.45;0.45;;;12.00;99.90;;;;;;5060940;28;20123;-73
2023/12/24 11:13:30;;;;;;;0.80;0.30;;;12.00;99.90;;;;;;5059206;28;20053;-77
2023/12/24 11:15:55;;;;;;;0.08;0.08;;;12.00;99.90;;;;;;5057317;28;20040;-75
2023/12/24 11:18:46;;;;;;;1.92;1.17;;;12.10;99.90;;;;;;5069553;28;20090;-77
2023/12/24 11:21:19;;;;;;;0.20;0.20;;;12.10;99.90;;;;;;5067795;28;20044;-77
2023/12/24 11:24:12;;;;;;;0.40;0.40;;;12.10;99.90;;;;;;5079141;28;20055;-77
2023/12/24 11:26:47;;;;;;;0.20;0.20;;;12.10;99.90;;;;;;5084088;28;20060;-77
2023/12/24 11:29:42;;;;;;;0.20;0.20;;;12.20;99.90;;;;;;5058287;28;20553;-76
2023/12/24 11:32:30;;;;;;;0.65;0.65;;;12.10;99.90;;;;;;5051437;28;20041;-82
2023/12/24 11:34:59;;;;;;;3.92;3.08;;;12.10;99.90;;;;;;5035557;28;20048;-73
2023/12/24 11:37:27;;;;;;;0.20;0.20;;;12.10;99.90;;;;;;5056800;28;20119;-76
2023/12/24 11:40:07;;;;;;;0.80;0.25;;;12.10;99.90;;;;;;5065286;28;20047;-78
2023/12/24 11:42:48;;;;;;;0.10;0.00;;;12.10;99.90;;;;;;5051177;28;20488;-78
2023/12/24 11:45:23;;;;;;;0.10;0.10;;;12.10;99.90;;;;;;5083227;28;20554;-79
2023/12/24 11:47:50;;;;;;;0.10;0.10;;;12.10;99.90;;;;;;5067474;28;20076;-78
2023/12/24 11:50:16;;;;;;;2.83;0.30;;;12.10;99.90;;;;;;5061415;28;20566;-73
2023/12/24 11:52:43;;;;;;;0.10;0.10;;;12.20;99.90;;;;;;5065017;28;20052;-74
2023/12/24 11:55:10;;;;;;;0.52;0.52;;;12.20;99.90;;;;;;5048052;28;20036;-79
2023/12/24 11:57:36;;;;;;;0.25;0.15;;;12.10;99.90;;;;;;5061099;28;20112;-73
2023/12/24 12:00:02;;;;;;;0.13;0.13;;;12.20;99.90;;;;;;5049237;28;20068;-80
2023/12/24 12:02:28;;;;;;;0.25;0.20;;;12.20;99.90;;;;;;5073372;28;20037;-75
2023/12/24 12:04:56;;;;;;;0.13;0.13;;;12.20;99.90;;;;;;5072105;28;20036;-76
2023/12/24 12:07:23;;;;;;;0.20;0.20;;;12.20;99.90;;;;;;5059991;28;20120;-78
2023/12/24 12:09:48;;;;;;;1.23;0.47;;;12.20;99.90;;;;;;5065733;28;20253;-73
2023/12/24 12:12:14;;;;;;;0.60;0.17;;;12.10;99.90;;;;;;5067325;28;20120;-73
2023/12/24 12:14:39;;;;;;;0.82;0.82;;;12.10;99.90;;;;;;5064696;28;20542;-79
2023/12/24 12:17:05;;;;;;;0.35;0.17;;;12.20;99.90;;;;;;5068980;28;20540;-75
2023/12/24 12:19:31;;;;;;;2.10;0.20;;;12.10;99.90;;;;;;5064530;28;20055;-80
2023/12/24 12:21:56;;;;;;;0.20;0.10;;;12.10;99.90;;;;;;5061567;28;20044;-78
2023/12/24 12:24:26;;;;;;;0.20;0.20;;;12.20;99.90;;;;;;5064256;28;20045;-71
2023/12/24 12:26:52;;;;;;;0.45;0.45;;;12.20;99.90;;;;;;5064429;28;20394;-76
2023/12/24 12:29:17;;;;;;;0.85;0.38;;;12.20;99.90;;;;;;5064309;28;20043;-75
2023/12/24 12:31:43;;;;;;;1.08;0.30;;;12.10;99.90;;;;;;5071961;28;20127;-76
2023/12/24 12:34:10;;;;;;;0.10;0.10;;;12.10;99.90;;;;;;5067076;28;20399;-75
2023/12/24 12:36:35;;;;;;;0.00;0.00;;;12.00;99.90;;;;;;5065301;28;20048;-76
2023/12/24 12:39:01;;;;;;;0.17;0.17;;;12.00;99.90;;;;;;5060921;28;20071;-75
2023/12/24 12:41:26;;;;;;;0.00;0.00;;;12.00;99.90;;;;;;5048760;28;20041;-76
2023/12/24 12:43:52;;;;;;;1.23;0.73;;;12.00;99.90;;;;;;5063446;28;20082;-78
2023/12/24 12:46:17;;;;;;;1.77;0.30;;;12.00;99.90;;;;;;5064760;28;20043;-76
2023/12/24 12:48:44;;;;;;;2.00;0.25;;;12.00;99.90;;;;;;5063572;28;20105;-82